Time;durP1;ratioP1;P1;durP2;ratioP2;P2;SDS_P1;SDS_P2;PMS_P1;PMS_P2;Temp;Humidity;BMP_temperature;BMP_pressure;BME280_temperature;BME280_humidity;BME280_pressure;Samples;Min_cycle;Max_cycle;Signal;HPM_P1;HPM_P2
2024/01/12 00:01:00;;;;;;;36.13;16.00;;;;;;;-146.82;100.00;71671.09;5013238;28;20138;-76
2024/01/12 00:03:50;;;;;;;31.52;15.85;;;;;;;-146.82;100.00;71671.09;5014734;28;20453;-75
2024/01/12 00:06:28;;;;;;;37.10;17.13;;;;;;;-146.82;100.00;71671.09;5009099;28;20049;-75
2024/01/12 00:08:59;;;;;;;31.92;15.00;;;;;;;-146.82;100.00;71671.09;5014794;28;20032;-75
2024/01/12 00:11:28;;;;;;;34.85;17.15;;;;;;;-146.82;100.00;71671.09;5013778;28;20029;-74
2024/01/12 00:14:03;;;;;;;31.13;15.77;;;;;;;-146.82;100.00;71671.09;5013628;28;20037;-75
2024/01/12 00:16:30;;;;;;;33.22;16.58;;;;;;;-146.82;100.00;71671.09;5015693;28;20029;-75
2024/01/12 00:18:56;;;;;;;32.17;16.02;;;;;;;-146.82;100.00;71671.09;5016514;28;20038;-77
2024/01/12 00:21:21;;;;;;;30.40;14.43;;;;;;;-146.82;100.00;71671.09;5016530;28;20356;-72
2024/01/12 00:23:48;;;;;;;31.63;16.55;;;;;;;-146.82;100.00;71671.09;5015224;28;20026;-75
2024/01/12 00:26:13;;;;;;;31.52;15.70;;;;;;;-146.82;100.00;71671.09;5015031;28;20379;-76
2024/01/12 00:28:39;;;;;;;25.10;14.25;;;;;;;-146.82;100.00;71671.09;5014618;28;20034;-75
2024/01/12 00:31:06;;;;;;;28.20;15.13;;;;;;;-146.82;100.00;71671.09;5015178;28;20029;-76
2024/01/12 00:33:31;;;;;;;29.33;15.40;;;;;;;-146.82;100.00;71671.09;5016265;28;20113;-76
2024/01/12 00:35:58;;;;;;;30.27;15.73;;;;;;;-146.82;100.00;71671.09;5016726;28;20126;-76
2024/01/12 00:38:24;;;;;;;29.60;16.08;;;;;;;-146.82;100.00;71671.09;5018639;28;20052;-76
2024/01/12 00:40:50;;;;;;;27.77;15.30;;;;;;;-146.82;100.00;71671.09;5019542;28;20530;-75
2024/01/12 00:43:15;;;;;;;30.73;15.80;;;;;;;-146.82;100.00;71671.09;5016855;28;20041;-76
2024/01/12 00:45:42;;;;;;;31.98;15.05;;;;;;;-146.82;100.00;71671.09;5018801;28;20053;-75
2024/01/12 00:48:07;;;;;;;27.73;14.95;;;;;;;-146.82;100.00;71671.09;5001489;28;20022;-77
2024/01/12 00:50:33;;;;;;;31.05;15.00;;;;;;;-146.82;100.00;71671.09;5017536;28;20036;-76
2024/01/12 00:52:59;;;;;;;27.30;14.30;;;;;;;-146.82;100.00;71671.09;5016763;28;20037;-75
2024/01/12 00:55:24;;;;;;;28.58;15.02;;;;;;;-146.82;100.00;71671.09;5017735;28;20460;-76
2024/01/12 00:57:49;;;;;;;30.10;15.45;;;;;;;-146.82;100.00;71671.09;5020762;28;20179;-75
2024/01/12 01:00:15;;;;;;;27.98;14.63;;;;;;;-146.82;100.00;71671.09;5020975;28;20029;-75
2024/01/12 01:02:41;;;;;;;26.45;14.80;;;;;;;-146.82;100.00;71671.09;5017889;28;20037;-75
2024/01/12 01:05:09;;;;;;;27.35;14.30;;;;;;;-146.82;100.00;71671.09;5026315;28;20081;-76
2024/01/12 01:07:35;;;;;;;29.75;14.40;;;;;;;-146.82;100.00;71671.09;5023908;28;20034;-75
2024/01/12 01:10:03;;;;;;;31.10;14.10;;;;;;;-146.82;100.00;71671.09;5016875;28;20026;-75
2024/01/12 01:12:30;;;;;;;27.42;14.10;;;;;;;-146.82;100.00;71671.09;5015728;28;20032;-75
2024/01/12 01:14:56;;;;;;;30.33;14.65;;;;;;;-146.82;100.00;71671.09;5015391;28;20441;-74
2024/01/12 01:17:21;;;;;;;31.15;14.70;;;;;;;-146.82;100.00;71671.09;5013896;28;20030;-75
2024/01/12 01:19:47;;;;;;;25.75;14.02;;;;;;;-146.82;100.00;71671.09;5013939;28;20117;-75
2024/01/12 01:22:14;;;;;;;30.20;14.98;;;;;;;-146.82;100.00;71671.09;5015175;28;20038;-75
2024/01/12 01:24:39;;;;;;;26.85;13.90;;;;;;;-146.82;100.00;71671.09;5014577;28;20244;-78
2024/01/12 01:27:07;;;;;;;28.75;14.15;;;;;;;-146.82;100.00;71671.09;5017073;28;20045;-76
2024/01/12 01:29:33;;;;;;;27.40;14.75;;;;;;;-146.82;100.00;71671.09;5017884;28;20032;-75
2024/01/12 01:31:59;;;;;;;28.73;13.73;;;;;;;-146.82;100.00;71671.09;5016116;28;20120;-76
2024/01/12 01:34:24;;;;;;;26.48;13.40;;;;;;;-146.82;100.00;71671.09;5014715;28;20030;-76
2024/01/12 01:36:50;;;;;;;27.77;14.30;;;;;;;-146.82;100.00;71671.09;5014047;28;20538;-76
2024/01/12 01:39:18;;;;;;;29.95;15.75;;;;;;;-146.82;100.00;71671.09;5014377;28;20037;-74
2024/01/12 01:41:44;;;;;;;26.50;15.27;;;;;;;-146.82;100.00;71671.09;4996767;28;20037;-76
2024/01/12 01:44:11;;;;;;;29.90;15.18;;;;;;;-146.82;100.00;71671.09;5014371;28;20022;-74
2024/01/12 01:46:37;;;;;;;26.13;14.43;;;;;;;-146.82;100.00;71671.09;5020881;28;20080;-75
2024/01/12 01:49:11;;;;;;;35.05;16.65;;;;;;;-146.82;100.00;71671.09;5022803;28;20068;-77
2024/01/12 01:51:37;;;;;;;29.23;14.43;;;;;;;-146.82;100.00;71671.09;5023317;28;20061;-74
2024/01/12 01:54:12;;;;;;;29.83;14.52;;;;;;;-146.82;100.00;71671.09;5015205;28;20303;-75
2024/01/12 01:56:38;;;;;;;28.23;14.88;;;;;;;-146.82;100.00;71671.09;5012481;28;20115;-77
2024/01/12 01:59:06;;;;;;;32.95;14.73;;;;;;;-146.82;100.00;71671.09;5015323;28;20048;-76
2024/01/12 02:01:31;;;;;;;33.05;15.43;;;;;;;-146.82;100.00;71671.09;5015233;28;20030;-74
2024/01/12 02:03:58;;;;;;;26.85;14.50;;;;;;;-146.82;100.00;71671.09;5016827;28;20026;-74
2024/01/12 02:06:24;;;;;;;34.47;16.27;;;;;;;-146.82;100.00;71671.09;5011617;28;20041;-73
2024/01/12 02:08:50;;;;;;;31.92;14.43;;;;;;;-146.82;100.00;71671.09;5012777;28;20053;-75
2024/01/12 02:11:15;;;;;;;35.05;16.25;;;;;;;-146.82;100.00;71671.09;5011018;28;20383;-76
2024/01/12 02:13:41;;;;;;;30.05;15.00;;;;;;;-146.82;100.00;71671.09;5012457;28;20033;-75
2024/01/12 02:16:10;;;;;;;31.58;15.85;;;;;;;-146.82;100.00;71671.09;5011144;28;20076;-75
2024/01/12 02:18:35;;;;;;;30.75;16.33;;;;;;;-146.82;100.00;71671.09;5011164;28;20038;-76
2024/01/12 02:21:00;;;;;;;34.45;15.70;;;;;;;-146.82;100.00;71671.09;5012240;28;20022;-74
2024/01/12 02:23:27;;;;;;;36.70;16.30;;;;;;;-146.82;100.00;71671.09;5012516;28;20463;-73
2024/01/12 02:25:54;;;;;;;33.92;16.38;;;;;;;-146.82;100.00;71671.09;5013487;28;20117;-75
2024/01/12 02:28:20;;;;;;;32.55;15.18;;;;;;;-146.82;100.00;71671.09;5012383;28;20026;-75
2024/01/12 02:30:47;;;;;;;33.55;16.73;;;;;;;-146.82;100.00;71671.09;4995831;28;20467;-74
2024/01/12 02:33:13;;;;;;;35.13;15.77;;;;;;;-146.82;100.00;71671.09;4995630;28;20523;-76
2024/01/12 02:35:38;;;;;;;36.58;15.30;;;;;;;-146.82;100.00;71671.09;5016146;28;20125;-74
2024/01/12 02:38:05;;;;;;;36.50;15.48;;;;;;;-146.82;100.00;71671.09;5017178;28;20029;-73
2024/01/12 02:40:32;;;;;;;33.75;16.02;;;;;;;-146.82;100.00;71671.09;5015746;28;20383;-75
2024/01/12 02:43:00;;;;;;;36.25;17.33;;;;;;;-146.82;100.00;71671.09;5015959;28;20541;-76
2024/01/12 02:45:25;;;;;;;36.40;16.05;;;;;;;-146.82;100.00;71671.09;5017134;28;20519;-76
2024/01/12 02:47:52;;;;;;;36.72;17.67;;;;;;;-146.82;100.00;71671.09;5016746;28;20061;-76
2024/01/12 02:50:18;;;;;;;32.60;15.90;;;;;;;-146.82;100.00;71671.09;5015226;28;20084;-73
2024/01/12 02:52:44;;;;;;;38.55;16.15;;;;;;;-146.82;100.00;71671.09;5016139;28;20033;-74
2024/01/12 02:55:10;;;;;;;31.65;16.98;;;;;;;-146.82;100.00;71671.09;4999204;28;20391;-74
2024/01/12 02:57:36;;;;;;;37.75;15.60;;;;;;;-146.82;100.00;71671.09;5015711;28;20471;-74
2024/01/12 03:00:02;;;;;;;33.03;16.98;;;;;;;-146.82;100.00;71671.09;5015598;28;20033;-75
2024/01/12 03:02:29;;;;;;;36.58;16.98;;;;;;;-146.82;100.00;71671.09;5017020;28;20026;-75
2024/01/12 03:04:55;;;;;;;35.70;16.30;;;;;;;-146.82;100.00;71671.09;5015261;28;20116;-75
2024/01/12 03:07:21;;;;;;;33.08;15.93;;;;;;;-146.82;100.00;71671.09;5016827;28;20060;-75
2024/01/12 03:09:47;;;;;;;35.13;17.63;;;;;;;-146.82;100.00;71671.09;5016989;28;20038;-77
2024/01/12 03:12:12;;;;;;;35.47;16.33;;;;;;;-146.82;100.00;71671.09;5016594;28;20049;-75
2024/01/12 03:14:39;;;;;;;39.92;18.90;;;;;;;-146.82;100.00;71671.09;5016270;28;20461;-76
2024/01/12 03:17:10;;;;;;;43.38;17.52;;;;;;;-146.82;100.00;71671.09;5015957;28;20082;-73
2024/01/12 03:19:36;;;;;;;;;;;;;;;-146.82;100.00;71671.09;5016928;28;20044;-76
2024/01/12 03:22:01;;;;;;;39.15;16.00;;;;;;;-146.82;100.00;71671.09;5014941;28;19909;-76
2024/01/12 03:24:28;;;;;;;39.92;17.73;;;;;;;-146.82;100.00;71671.09;5014904;28;20459;-75
2024/01/12 03:26:55;;;;;;;37.13;17.38;;;;;;;-146.82;100.00;71671.09;5016344;28;20056;-74
2024/01/12 03:29:22;;;;;;;36.63;16.98;;;;;;;-146.82;100.00;71671.09;5016270;28;20057;-76
2024/01/12 03:31:48;;;;;;;47.33;19.23;;;;;;;-146.82;100.00;71671.09;5016004;28;20025;-75
2024/01/12 03:34:15;;;;;;;36.55;17.83;;;;;;;-146.82;100.00;71671.09;5016282;28;20101;-75
2024/01/12 03:36:42;;;;;;;43.05;18.52;;;;;;;-146.82;100.00;71671.09;5014560;28;20088;-76
2024/01/12 03:39:08;;;;;;;38.78;17.90;;;;;;;-146.82;100.00;71671.09;5014623;28;20394;-74
2024/01/12 03:41:33;;;;;;;36.70;17.15;;;;;;;-146.82;100.00;71671.09;5014423;28;20034;-74
2024/01/12 03:43:59;;;;;;;39.50;18.20;;;;;;;-146.82;100.00;71671.09;5014064;28;20091;-75
2024/01/12 03:46:25;;;;;;;39.33;18.02;;;;;;;-146.82;100.00;71671.09;5014459;28;20037;-75
2024/01/12 03:48:50;;;;;;;42.35;19.38;;;;;;;-146.82;100.00;71671.09;5016534;28;20030;-75
2024/01/12 03:51:16;;;;;;;40.00;18.85;;;;;;;-146.82;100.00;71671.09;5015839;28;20049;-74
2024/01/12 03:53:42;;;;;;;41.22;18.88;;;;;;;-146.82;100.00;71671.09;5014389;28;20033;-74
2024/01/12 03:56:07;;;;;;;41.90;18.83;;;;;;;-146.82;100.00;71671.09;5014351;28;20079;-75
2024/01/12 03:58:32;;;;;;;53.92;20.15;;;;;;;-146.82;100.00;71671.09;5015708;28;20029;-73
2024/01/12 04:00:58;;;;;;;46.63;18.67;;;;;;;-146.82;100.00;71671.09;5015392;28;20029;-75
2024/01/12 04:03:23;;;;;;;46.45;18.75;;;;;;;-146.82;100.00;71671.09;5015946;28;20022;-75
2024/01/12 04:05:49;;;;;;;45.60;19.42;;;;;;;-146.82;100.00;71671.09;5015796;28;20025;-77
2024/01/12 04:08:14;;;;;;;47.97;20.38;;;;;;;-146.82;100.00;71671.09;5015334;28;20054;-73
2024/01/12 04:10:40;;;;;;;47.78;19.20;;;;;;;-146.82;100.00;71671.09;5015239;28;20123;-74
2024/01/12 04:13:05;;;;;;;43.50;18.92;;;;;;;-146.82;100.00;71671.09;5015353;28;20353;-75
2024/01/12 04:15:30;;;;;;;45.95;18.65;;;;;;;-146.82;100.00;71671.09;5013732;28;20451;-75
2024/01/12 04:17:56;;;;;;;49.63;19.70;;;;;;;-146.82;100.00;71671.09;5015422;28;20029;-74
2024/01/12 04:20:21;;;;;;;53.72;20.33;;;;;;;-146.82;100.00;71671.09;5015545;28;20028;-75
2024/01/12 04:22:47;;;;;;;57.53;20.85;;;;;;;-146.82;100.00;71671.09;5015119;28;20029;-75
2024/01/12 04:25:12;;;;;;;50.60;20.15;;;;;;;-146.82;100.00;71671.09;5015045;28;20014;-75
2024/01/12 04:27:37;;;;;;;50.28;20.83;;;;;;;-146.82;100.00;71671.09;5015128;28;20555;-77
2024/01/12 04:30:03;;;;;;;52.92;21.80;;;;;;;-146.82;100.00;71671.09;5013566;28;20017;-74
2024/01/12 04:32:29;;;;;;;58.45;20.73;;;;;;;-146.82;100.00;71671.09;5016134;28;20029;-77
2024/01/12 04:34:54;;;;;;;51.88;21.08;;;;;;;-146.82;100.00;71671.09;5016578;28;20054;-74
2024/01/12 04:37:21;;;;;;;56.13;21.20;;;;;;;-146.82;100.00;71671.09;5016420;28;20510;-74
2024/01/12 04:39:46;;;;;;;52.78;21.48;;;;;;;-146.82;100.00;71671.09;5019354;28;20017;-76
2024/01/12 04:42:13;;;;;;;55.65;20.02;;;;;;;-146.82;100.00;71671.09;5001656;28;20033;-74
2024/01/12 04:44:38;;;;;;;51.55;20.95;;;;;;;-146.82;100.00;71671.09;5016437;28;20025;-75
2024/01/12 04:47:05;;;;;;;54.75;21.55;;;;;;;-146.82;100.00;71671.09;5013920;28;20447;-75
2024/01/12 04:49:30;;;;;;;54.90;20.60;;;;;;;-146.82;100.00;71671.09;5015023;28;20441;-74
2024/01/12 04:51:56;;;;;;;48.70;19.42;;;;;;;-146.82;100.00;71671.09;5014965;28;20057;-74
2024/01/12 04:54:21;;;;;;;56.75;21.02;;;;;;;-146.82;100.00;71671.09;4996735;28;20030;-75
2024/01/12 04:56:47;;;;;;;56.95;22.77;;;;;;;-146.82;100.00;71671.09;5013468;28;20022;-75
2024/01/12 04:59:12;;;;;;;66.28;22.92;;;;;;;-146.82;100.00;71671.09;5013502;28;20032;-74
2024/01/12 05:01:38;;;;;;;62.10;22.48;;;;;;;-146.82;100.00;71671.09;5013650;28;20021;-75
2024/01/12 05:04:03;;;;;;;56.85;20.90;;;;;;;-146.82;100.00;71671.09;5014701;28;20018;-75
2024/01/12 05:06:29;;;;;;;70.43;24.90;;;;;;;-146.82;100.00;71671.09;5018270;28;20030;-75
2024/01/12 05:08:54;;;;;;;61.58;22.58;;;;;;;-146.82;100.00;71671.09;5017668;28;20026;-75
2024/01/12 05:11:22;;;;;;;59.83;22.55;;;;;;;-146.82;100.00;71671.09;5015926;28;20033;-74
2024/01/12 05:13:47;;;;;;;70.05;22.83;;;;;;;-146.82;100.00;71671.09;5013377;28;20029;-76
2024/01/12 05:16:12;;;;;;;62.50;22.92;;;;;;;-146.82;100.00;71671.09;4996288;28;20033;-76
2024/01/12 05:18:38;;;;;;;63.30;20.90;;;;;;;-146.82;100.00;71671.09;5014165;28;20025;-75
2024/01/12 05:21:03;;;;;;;61.50;21.10;;;;;;;-146.82;100.00;71671.09;5014092;28;20037;-76
2024/01/12 05:23:29;;;;;;;62.90;22.40;;;;;;;-146.82;100.00;71671.09;5012908;28;20360;-75
2024/01/12 05:25:54;;;;;;;66.20;22.95;;;;;;;-146.82;100.00;71671.09;5013046;28;20037;-75
2024/01/12 05:28:20;;;;;;;61.53;22.95;;;;;;;-146.82;100.00;71671.09;5012364;28;20029;-75
2024/01/12 05:30:45;;;;;;;64.88;22.58;;;;;;;-146.82;100.00;71671.09;5012574;28;20046;-76
2024/01/12 05:33:11;;;;;;;60.58;22.42;;;;;;;-146.82;100.00;71671.09;5012485;28;20071;-75
2024/01/12 05:35:36;;;;;;;59.15;21.50;;;;;;;-146.82;100.00;71671.09;5013611;28;20045;-75
2024/01/12 05:38:02;;;;;;;76.10;22.77;;;;;;;-146.82;100.00;71671.09;5013714;28;20034;-74
2024/01/12 05:40:28;;;;;;;63.92;22.20;;;;;;;-146.82;100.00;71671.09;5012484;28;20386;-75
2024/01/12 05:42:53;;;;;;;65.13;22.65;;;;;;;-146.82;100.00;71671.09;4995863;28;20464;-74
2024/01/12 05:45:18;;;;;;;58.80;21.25;;;;;;;-146.82;100.00;71671.09;5012280;28;20348;-78
2024/01/12 05:47:44;;;;;;;59.17;20.92;;;;;;;-146.82;100.00;71671.09;5020330;28;20121;-74
2024/01/12 05:50:09;;;;;;;62.90;20.90;;;;;;;-146.82;100.00;71671.09;5021353;28;20029;-78
2024/01/12 05:52:35;;;;;;;65.65;22.85;;;;;;;-146.82;100.00;71671.09;5016007;28;20521;-76
2024/01/12 05:55:01;;;;;;;63.35;23.05;;;;;;;-146.82;100.00;71671.09;5013475;28;20034;-79
2024/01/12 05:57:27;;;;;;;64.72;22.88;;;;;;;-146.82;100.00;71671.09;5013661;28;20034;-77
2024/01/12 05:59:53;;;;;;;64.55;23.45;;;;;;;-146.82;100.00;71671.09;5013447;28;20080;-78
2024/01/12 06:02:19;;;;;;;67.20;24.85;;;;;;;-146.82;100.00;71671.09;5013796;28;20034;-75
2024/01/12 06:04:44;;;;;;;75.32;24.55;;;;;;;-146.82;100.00;71671.09;5013478;28;20033;-76
2024/01/12 06:07:10;;;;;;;63.78;23.38;;;;;;;-146.82;100.00;71671.09;5012041;28;20030;-79
2024/01/12 06:09:35;;;;;;;59.83;21.63;;;;;;;-146.82;100.00;71671.09;5015509;28;20053;-78
2024/01/12 06:12:01;;;;;;;67.63;24.05;;;;;;;-146.82;100.00;71671.09;5027198;28;20044;-76
2024/01/12 06:14:26;;;;;;;65.40;22.65;;;;;;;-146.82;100.00;71671.09;5038522;28;20025;-77
2024/01/12 06:16:52;;;;;;;63.03;22.27;;;;;;;-146.82;100.00;71671.09;5040730;28;20521;-76
2024/01/12 06:19:17;;;;;;;53.63;21.10;;;;;;;-146.82;100.00;71671.09;5039219;28;20479;-79
2024/01/12 06:21:43;;;;;;;48.63;19.67;;;;;;;-146.82;100.00;71671.09;5049791;28;20026;-81
2024/01/12 06:24:08;;;;;;;49.67;19.25;;;;;;;-146.82;100.00;71671.09;5054148;28;20030;-81
2024/01/12 06:26:34;;;;;;;52.65;21.92;;;;;;;-146.82;100.00;71671.09;5053870;28;20094;-79
2024/01/12 06:28:59;;;;;;;49.80;21.27;;;;;;;-146.82;100.00;71671.09;5037428;28;20077;-79
2024/01/12 06:31:31;;;;;;;56.53;21.27;;;;;;;-146.82;100.00;71671.09;5035750;28;20352;-79
2024/01/12 06:33:57;;;;;;;57.38;21.13;;;;;;;-146.82;100.00;71671.09;5037112;28;20025;-78
2024/01/12 06:36:22;;;;;;;45.38;18.35;;;;;;;-146.82;100.00;71671.09;5035686;28;20053;-80
2024/01/12 06:38:47;;;;;;;46.45;20.63;;;;;;;-146.82;100.00;71671.09;5019240;28;20466;-77
2024/01/12 06:41:13;;;;;;;40.15;17.90;;;;;;;-146.82;100.00;71671.09;5035557;28;20471;-78
2024/01/12 06:43:38;;;;;;;44.95;17.52;;;;;;;-146.82;100.00;71671.09;5035556;28;20040;-78
2024/01/12 06:46:07;;;;;;;42.55;15.93;;;;;;;-146.82;100.00;71671.09;5036983;28;20508;-80
2024/01/12 06:48:34;;;;;;;29.63;11.35;;;;;;;-146.82;100.00;71671.09;5038296;28;20026;-78
2024/01/12 06:50:59;;;;;;;36.78;13.93;;;;;;;-146.82;100.00;71671.09;5037217;28;20091;-79
2024/01/12 06:53:25;;;;;;;39.30;14.45;;;;;;;-146.82;100.00;71671.09;5037513;28;20428;-78
2024/01/12 06:55:50;;;;;;;34.25;13.68;;;;;;;-146.82;100.00;71671.09;5036427;28;20033;-78
2024/01/12 06:58:16;;;;;;;31.98;13.70;;;;;;;-146.82;100.00;71671.09;5036585;28;20029;-75
2024/01/12 07:00:41;;;;;;;29.33;13.65;;;;;;;-146.82;100.00;71671.09;5036369;28;20025;-76
2024/01/12 07:03:07;;;;;;;30.80;13.05;;;;;;;-146.82;100.00;71671.09;5036443;28;20551;-75
2024/01/12 07:05:32;;;;;;;36.38;12.98;;;;;;;-146.82;100.00;71671.09;5036395;28;20026;-76
2024/01/12 07:07:57;;;;;;;30.80;13.85;;;;;;;-146.82;100.00;71671.09;5035088;28;20151;-75
2024/01/12 07:10:23;;;;;;;33.50;13.45;;;;;;;-146.82;100.00;71671.09;5034751;28;20033;-76
2024/01/12 07:12:51;;;;;;;38.38;14.25;;;;;;;-146.82;100.00;71671.09;5035169;28;20496;-76
2024/01/12 07:15:17;;;;;;;33.35;14.48;;;;;;;-146.82;100.00;71671.09;5034190;28;20037;-75
2024/01/12 07:17:43;;;;;;;31.05;13.38;;;;;;;-146.82;100.00;71671.09;5034707;28;20039;-76
2024/01/12 07:20:10;;;;;;;38.85;15.13;;;;;;;-146.82;100.00;71671.09;5035088;28;20029;-75
2024/01/12 07:22:36;;;;;;;32.80;15.73;;;;;;;-146.82;100.00;71671.09;5035451;28;20087;-74
2024/01/12 07:25:01;;;;;;;34.38;16.00;;;;;;;-146.82;100.00;71671.09;5034609;28;20425;-76
2024/01/12 07:27:26;;;;;;;45.35;16.27;;;;;;;-146.82;100.00;71671.09;5020089;28;20061;-76
2024/01/12 07:29:52;;;;;;;36.72;15.43;;;;;;;-146.82;100.00;71671.09;5014982;28;20471;-77
2024/01/12 07:32:17;;;;;;;35.40;16.30;;;;;;;-146.82;100.00;71671.09;5014434;28;20026;-75
2024/01/12 07:34:43;;;;;;;34.03;15.55;;;;;;;-146.82;100.00;71671.09;5015545;28;20492;-76
2024/01/12 07:37:08;;;;;;;32.53;14.43;;;;;;;-146.82;100.00;71671.09;5015666;28;20050;-76
2024/01/12 07:39:33;;;;;;;29.60;13.07;;;;;;;-146.82;100.00;71671.09;5014013;28;20510;-77
2024/01/12 07:41:59;;;;;;;32.70;12.95;;;;;;;-146.82;100.00;71671.09;5015644;28;20121;-78
2024/01/12 07:44:24;;;;;;;28.25;14.40;;;;;;;-146.82;100.00;71671.09;5021649;28;20109;-77
2024/01/12 07:46:50;;;;;;;28.08;12.80;;;;;;;-146.82;100.00;71671.09;5020251;28;20033;-75
2024/01/12 07:49:15;;;;;;;31.65;12.80;;;;;;;-146.82;100.00;71671.09;5016425;28;20042;-77
2024/01/12 07:51:41;;;;;;;29.95;13.75;;;;;;;-146.82;100.00;71671.09;5019702;28;20029;-75
2024/01/12 07:54:06;;;;;;;30.27;13.60;;;;;;;-146.82;100.00;71671.09;5014673;28;20387;-76
2024/01/12 07:56:31;;;;;;;29.45;14.18;;;;;;;-146.82;100.00;71671.09;5034421;28;20037;-74
2024/01/12 07:58:57;;;;;;;29.05;13.85;;;;;;;-146.82;100.00;71671.09;5021452;28;20026;-76
2024/01/12 08:01:23;;;;;;;30.60;14.40;;;;;;;-146.82;100.00;71671.09;5015294;28;20495;-77
2024/01/12 08:03:48;;;;;;;27.83;13.85;;;;;;;-146.82;100.00;71671.09;5013429;28;20022;-75
2024/01/12 08:06:15;;;;;;;45.95;17.25;;;;;;;-146.82;100.00;71671.09;5014872;28;20471;-75
2024/01/12 08:08:40;;;;;;;64.07;21.80;;;;;;;-146.82;100.00;71671.09;5014959;28;20471;-77
2024/01/12 08:11:05;;;;;;;52.58;21.77;;;;;;;-146.82;100.00;71671.09;5014951;28;20030;-77
2024/01/12 08:13:31;;;;;;;42.78;18.67;;;;;;;-146.82;100.00;71671.09;5015005;28;20025;-76
2024/01/12 08:15:57;;;;;;;41.83;16.80;;;;;;;-146.82;100.00;71671.09;5014822;28;20029;-77
2024/01/12 08:18:22;;;;;;;52.83;19.83;;;;;;;-146.82;100.00;71671.09;5015057;28;20037;-76
2024/01/12 08:20:48;;;;;;;54.15;20.35;;;;;;;-146.82;100.00;71671.09;5013750;28;20029;-74
2024/01/12 08:23:15;;;;;;;53.03;20.27;;;;;;;-146.82;100.00;71671.09;5014996;28;20026;-77
2024/01/12 08:25:41;;;;;;;53.47;21.25;;;;;;;-146.82;100.00;71671.09;5013337;28;20030;-74
2024/01/12 08:28:07;;;;;;;52.92;20.67;;;;;;;-146.82;100.00;71671.09;5013533;28;20451;-75
2024/01/12 08:30:33;;;;;;;49.45;19.00;;;;;;;-146.82;100.00;71671.09;5014902;28;20058;-76
2024/01/12 08:32:59;;;;;;;38.67;17.90;;;;;;;-146.82;100.00;71671.09;5014143;28;20472;-74
2024/01/12 08:35:26;;;;;;;38.90;15.55;;;;;;;-146.82;100.00;71671.09;5013072;28;20083;-75
2024/01/12 08:37:51;;;;;;;43.45;18.33;;;;;;;-146.82;100.00;71671.09;5014220;28;20056;-75
2024/01/12 08:40:17;;;;;;;39.15;17.40;;;;;;;-146.82;100.00;71671.09;5014271;28;20440;-74
2024/01/12 08:42:42;;;;;;;38.70;16.38;;;;;;;-146.82;100.00;71671.09;5014557;28;20103;-75
2024/01/12 08:45:08;;;;;;;44.58;17.83;;;;;;;-146.82;100.00;71671.09;5014485;28;20033;-74
2024/01/12 08:47:33;;;;;;;43.95;16.17;;;;;;;-146.82;100.00;71671.09;5014085;28;20112;-76
2024/01/12 08:49:59;;;;;;;37.88;16.27;;;;;;;-146.82;100.00;71671.09;5014281;28;20447;-74
2024/01/12 08:52:25;;;;;;;37.13;16.48;;;;;;;-146.82;100.00;71671.09;5012725;28;20033;-78
2024/01/12 08:54:50;;;;;;;47.50;16.98;;;;;;;-146.82;100.00;71671.09;5014231;28;20026;-75
2024/01/12 08:57:16;;;;;;;43.38;16.38;;;;;;;-146.82;100.00;71671.09;5014179;28;20029;-74
2024/01/12 08:59:41;;;;;;;39.70;16.00;;;;;;;-146.82;100.00;71671.09;5014091;28;20364;-76
2024/01/12 09:02:06;;;;;;;37.45;15.60;;;;;;;-146.82;100.00;71671.09;5014164;28;20498;-75
2024/01/12 09:04:34;;;;;;;41.22;15.98;;;;;;;-146.82;100.00;71671.09;5014065;28;20033;-75
2024/01/12 09:06:59;;;;;;;43.60;16.55;;;;;;;-146.82;100.00;71671.09;5014124;28;20037;-75
2024/01/12 09:09:25;;;;;;;34.58;15.98;;;;;;;-146.82;100.00;71671.09;5012802;28;20026;-75
2024/01/12 09:11:51;;;;;;;36.05;16.75;;;;;;;-146.82;100.00;71671.09;5013902;28;20478;-76
2024/01/12 09:14:17;;;;;;;39.05;15.13;;;;;;;-146.82;100.00;71671.09;5014010;28;20028;-78
2024/01/12 09:16:42;;;;;;;36.65;15.50;;;;;;;-146.82;100.00;71671.09;5013843;28;20029;-77
2024/01/12 09:19:08;;;;;;;36.78;16.17;;;;;;;-146.82;100.00;71671.09;5014141;28;20030;-75
2024/01/12 09:21:33;;;;;;;34.08;15.57;;;;;;;-146.82;100.00;71671.09;5013717;28;20442;-79
2024/01/12 09:23:59;;;;;;;32.45;15.20;;;;;;;-146.82;100.00;71671.09;5013639;28;20034;-75
2024/01/12 09:26:24;;;;;;;32.67;14.38;;;;;;;-146.82;100.00;71671.09;5013664;28;20061;-74
2024/01/12 09:28:50;;;;;;;35.42;15.02;;;;;;;-146.82;100.00;71671.09;5013793;28;20528;-77
2024/01/12 09:31:15;;;;;;;33.30;13.93;;;;;;;-146.82;100.00;71671.09;5021744;28;20037;-76
2024/01/12 09:33:41;;;;;;;31.88;14.48;;;;;;;-146.82;100.00;71671.09;5021001;28;20463;-76
2024/01/12 09:36:07;;;;;;;30.25;13.00;;;;;;;-146.82;100.00;71671.09;5025400;28;20052;-75
2024/01/12 09:38:32;;;;;;;27.40;11.48;;;;;;;-146.82;100.00;71671.09;5024225;28;20088;-76
2024/01/12 09:40:59;;;;;;;21.90;11.02;;;;;;;-146.82;100.00;71671.09;5024837;28;20347;-76
2024/01/12 09:43:27;;;;;;;24.20;11.23;;;;;;;-146.82;100.00;71671.09;5017530;28;20044;-76
2024/01/12 09:45:53;;;;;;;20.48;11.02;;;;;;;-146.82;100.00;71671.09;5019507;28;20141;-77
2024/01/12 09:48:19;;;;;;;22.33;10.18;;;;;;;-146.82;100.00;71671.09;5013333;28;20083;-77
2024/01/12 09:50:46;;;;;;;25.60;11.15;;;;;;;-146.82;100.00;71671.09;5013783;28;20491;-78
2024/01/12 09:53:12;;;;;;;24.75;10.68;;;;;;;-146.82;100.00;71671.09;5013948;28;20511;-78
2024/01/12 09:55:37;;;;;;;20.42;10.88;;;;;;;-146.82;100.00;71671.09;5013053;28;20121;-80
2024/01/12 09:58:04;;;;;;;24.10;10.18;;;;;;;-146.82;100.00;71671.09;5011469;28;20036;-76
2024/01/12 10:00:31;;;;;;;23.52;9.73;;;;;;;-146.82;100.00;71671.09;5009840;28;20057;-75
2024/01/12 10:02:58;;;;;;;23.88;9.90;;;;;;;-146.82;100.00;71671.09;5011788;28;20076;-76
2024/01/12 10:05:24;;;;;;;18.65;9.20;;;;;;;-146.82;100.00;71671.09;5011821;28;20120;-75
2024/01/12 10:07:50;;;;;;;19.88;9.05;;;;;;;-146.82;100.00;71671.09;5012164;28;20025;-77
2024/01/12 10:10:16;;;;;;;20.33;9.02;;;;;;;-146.82;100.00;71671.09;5012664;28;20029;-76
2024/01/12 10:12:41;;;;;;;24.42;10.40;;;;;;;-146.82;100.00;71671.09;5013683;28;20079;-75
2024/01/12 10:15:11;;;;;;;19.45;10.45;;;;;;;-146.82;100.00;71671.09;5012116;28;20026;-77
2024/01/12 10:17:36;;;;;;;16.98;8.70;;;;;;;-146.82;100.00;71671.09;5012534;28;20030;-78
2024/01/12 10:20:04;;;;;;;22.20;8.68;;;;;;;-146.82;100.00;71671.09;5013623;28;20029;-76
2024/01/12 10:22:30;;;;;;;16.23;7.43;;;;;;;-146.82;100.00;71671.09;5013505;28;20029;-76
2024/01/12 10:25:00;;;;;;;14.68;8.10;;;;;;;-146.82;100.00;71671.09;5013446;28;20022;-76
2024/01/12 10:27:26;;;;;;;16.00;8.30;;;;;;;-146.82;100.00;71671.09;5013789;28;20092;-77
2024/01/12 10:29:52;;;;;;;16.92;7.93;;;;;;;-146.82;100.00;71671.09;5014976;28;20547;-76
2024/01/12 10:32:19;;;;;;;14.75;7.88;;;;;;;-146.82;100.00;71671.09;5014113;28;20066;-77
2024/01/12 10:34:48;;;;;;;15.80;8.18;;;;;;;-146.82;100.00;71671.09;5017585;28;20026;-78
2024/01/12 10:37:18;;;;;;;21.17;8.20;;;;;;;-146.82;100.00;71671.09;5019420;28;20049;-79
2024/01/12 10:39:48;;;;;;;14.25;8.20;;;;;;;-146.82;100.00;71671.09;5021372;28;20049;-77
2024/01/12 10:42:16;;;;;;;16.55;7.75;;;;;;;-146.82;100.00;71671.09;5024188;28;20022;-77
2024/01/12 10:44:43;;;;;;;16.80;8.43;;;;;;;-146.82;100.00;71671.09;5023753;28;20509;-78
2024/01/12 10:47:20;;;;;;;17.77;9.32;;;;;;;-146.82;100.00;71671.09;5017952;28;20064;-78
2024/01/12 10:49:50;;;;;;;15.43;8.18;;;;;;;-146.82;100.00;71671.09;5014864;28;20463;-77